Time;durP1;ratioP1;P1;durP2;ratioP2;P2;SDS_P1;SDS_P2;PMS_P1;PMS_P2;Temp;Humidity;BMP_temperature;BMP_pressure;BME280_temperature;BME280_humidity;BME280_pressure;Samples;Min_cycle;Max_cycle;Signal;HPM_P1;HPM_P2
2021/03/06 00:00:38;;;;;;;32.00;16.07;;;-0.50;99.90;;;;;;4963065;28;20186;-91
2021/03/06 00:03:04;;;;;;;32.53;15.77;;;-1.10;99.90;;;;;;4962962;28;20541;-88
2021/03/06 00:05:29;;;;;;;31.80;14.80;;;-2.00;99.90;;;;;;4979206;28;20190;-91
2021/03/06 00:07:56;;;;;;;31.30;15.40;;;-0.30;99.90;;;;;;4963108;28;20186;-91
2021/03/06 00:10:22;;;;;;;31.17;13.93;;;-1.80;99.90;;;;;;4978571;28;20629;-91
2021/03/06 00:12:49;;;;;;;29.17;12.17;;;-0.70;99.90;;;;;;4978991;28;20272;-91
2021/03/06 00:15:22;;;;;;;23.90;11.17;;;-1.00;99.90;;;;;;4996086;28;20216;-91
2021/03/06 00:17:47;;;;;;;30.57;12.67;;;-0.90;99.90;;;;;;4978697;28;20690;-90
2021/03/06 00:20:13;;;;;;;20.33;12.00;;;-1.90;99.90;;;;;;4995655;28;20276;-90
2021/03/06 00:22:39;;;;;;;22.10;11.67;;;-1.90;99.90;;;;;;4996486;28;20189;-91
2021/03/06 00:25:08;;;;;;;28.23;13.20;;;0.10;99.90;;;;;;4996183;28;20538;-90
2021/03/06 00:27:35;;;;;;;23.07;11.60;;;-1.90;99.90;;;;;;4978715;28;20186;-91
2021/03/06 00:30:01;;;;;;;25.30;12.13;;;-0.10;99.90;;;;;;4995944;28;20180;-91
2021/03/06 00:32:26;;;;;;;23.70;11.93;;;-1.80;99.90;;;;;;4962082;28;20199;-91
2021/03/06 00:34:52;;;;;;;27.33;12.47;;;-1.70;99.90;;;;;;4962644;28;20267;-91
2021/03/06 00:37:18;;;;;;;24.63;11.53;;;-1.50;99.90;;;;;;4995300;28;20641;-91
2021/03/06 00:39:44;;;;;;;26.87;11.80;;;-1.90;99.90;;;;;;4978262;28;20187;-91
2021/03/06 00:42:10;;;;;;;21.23;12.07;;;0.10;99.90;;;;;;4984820;28;20236;-88
2021/03/06 00:44:35;;;;;;;30.83;12.07;;;-0.90;99.90;;;;;;4994579;28;20193;-91
2021/03/06 00:47:01;;;;;;;21.53;12.57;;;-0.20;99.90;;;;;;4994568;28;20196;-90
2021/03/06 00:49:28;;;;;;;30.50;12.10;;;-1.70;99.90;;;;;;4994007;28;20229;-91
2021/03/06 00:51:53;;;;;;;30.00;11.90;;;-1.90;99.90;;;;;;4978277;28;20546;-91
2021/03/06 00:54:19;;;;;;;30.10;12.60;;;-1.90;99.90;;;;;;4993732;28;20210;-91
2021/03/06 00:56:45;;;;;;;25.73;12.87;;;-1.90;99.90;;;;;;4995332;28;20190;-90
2021/03/06 00:59:11;;;;;;;26.33;11.83;;;-1.90;99.90;;;;;;4993802;28;20182;-90
2021/03/06 01:01:36;;;;;;;25.23;11.80;;;-1.90;99.90;;;;;;4976913;28;20635;-90
2021/03/06 01:04:02;;;;;;;30.93;14.23;;;-2.00;99.90;;;;;;4995310;28;20529;-90
2021/03/06 01:06:28;;;;;;;23.80;12.13;;;-1.30;99.90;;;;;;4994555;28;20525;-90
2021/03/06 01:08:53;;;;;;;22.13;12.13;;;0.00;99.90;;;;;;4977773;28;20629;-89
2021/03/06 01:11:19;;;;;;;26.57;12.73;;;0.30;99.90;;;;;;4977612;28;20216;-90
2021/03/06 01:13:45;;;;;;;27.83;12.73;;;0.20;99.90;;;;;;4995025;28;20700;-93
2021/03/06 01:16:10;;;;;;;22.47;12.10;;;-2.00;99.90;;;;;;4995168;28;20687;-91
2021/03/06 01:18:36;;;;;;;23.23;12.40;;;-1.90;99.90;;;;;;4993623;28;20194;-90
2021/03/06 01:21:02;;;;;;;24.90;12.67;;;-1.40;99.90;;;;;;4977833;28;20196;-90
2021/03/06 01:23:28;;;;;;;22.73;12.17;;;-1.80;99.90;;;;;;4993241;28;20183;-94
2021/03/06 01:25:54;;;;;;;30.77;13.23;;;-0.60;99.90;;;;;;4994083;28;20195;-92
2021/03/06 01:28:19;;;;;;;23.50;11.93;;;-1.60;99.90;;;;;;4993676;28;20619;-91
2021/03/06 01:30:45;;;;;;;21.53;11.83;;;-1.80;99.90;;;;;;4994064;28;20178;-92
2021/03/06 01:33:11;;;;;;;28.13;12.50;;;-1.90;99.90;;;;;;4994193;28;20675;-91
2021/03/06 01:35:36;;;;;;;24.90;12.13;;;-0.40;99.90;;;;;;4976923;28;20208;-92
2021/03/06 01:38:02;;;;;;;26.40;12.50;;;-2.00;99.90;;;;;;4993896;28;20191;-91
2021/03/06 01:40:31;;;;;;;25.87;12.77;;;-2.00;99.90;;;;;;4993334;28;20188;-91
2021/03/06 01:42:57;;;;;;;17.60;9.80;;;-1.70;99.90;;;;;;4994870;28;20225;-90
2021/03/06 01:45:23;;;;;;;28.93;11.93;;;-0.30;99.90;;;;;;4994232;28;20215;-90
2021/03/06 01:47:49;;;;;;;27.63;13.33;;;-0.20;99.90;;;;;;4961108;28;20220;-90
2021/03/06 01:50:23;;;;;;;27.00;13.00;;;-0.20;99.90;;;;;;4976560;28;20179;-90
2021/03/06 01:52:49;;;;;;;34.00;12.47;;;-1.90;99.90;;;;;;4977378;28;20236;-90
2021/03/06 01:55:17;;;;;;;26.47;12.33;;;-0.30;99.90;;;;;;4976983;28;20290;-89
2021/03/06 01:57:45;;;;;;;24.20;12.43;;;-1.90;99.90;;;;;;4976962;28;20657;-89
2021/03/06 02:00:11;;;;;;;22.47;12.33;;;-1.80;99.90;;;;;;4993955;28;20706;-89
2021/03/06 02:02:37;;;;;;;13.00;8.33;;;-1.90;99.90;;;;;;4960475;28;20191;-89
2021/03/06 02:05:03;;;;;;;25.67;12.80;;;-0.70;99.90;;;;;;4994097;28;20191;-91
2021/03/06 02:07:29;;;;;;;23.30;11.30;;;-1.80;99.90;;;;;;4944594;28;20277;-90
2021/03/06 02:09:54;;;;;;;32.23;13.77;;;-1.80;99.90;;;;;;4993896;28;20270;-90
2021/03/06 02:12:38;;;;;;;29.53;12.10;;;-1.80;99.90;;;;;;4993644;28;20700;-91
2021/03/06 02:15:24;;;;;;;31.27;10.73;;;0.50;99.90;;;;;;4993729;28;20204;-90
2021/03/06 02:18:05;;;;;;;38.10;13.43;;;-0.50;99.90;;;;;;4994381;28;20209;-91
2021/03/06 02:20:51;;;;;;;46.70;14.73;;;-1.80;99.90;;;;;;4976428;28;20190;-90
2021/03/06 02:23:35;;;;;;;30.93;12.60;;;-1.30;99.90;;;;;;4994009;28;20167;-92
2021/03/06 02:26:26;;;;;;;31.10;12.80;;;-1.80;99.90;;;;;;4976496;28;20181;-91
2021/03/06 02:29:29;;;;;;;26.87;11.97;;;-1.80;99.90;;;;;;4994089;28;20247;-91
2021/03/06 02:31:56;;;;;;;23.20;11.13;;;-1.80;99.90;;;;;;4976377;28;20182;-91
2021/03/06 02:34:26;;;;;;;23.57;11.17;;;-0.70;99.90;;;;;;4994045;28;20292;-90
2021/03/06 02:36:57;;;;;;;29.70;12.33;;;-1.70;99.90;;;;;;4993807;28;20239;-90
2021/03/06 02:39:25;;;;;;;23.37;11.57;;;-0.20;99.90;;;;;;4993774;28;20162;-91
2021/03/06 02:41:52;;;;;;;23.40;10.17;;;-1.70;99.90;;;;;;4979764;28;20237;-91
2021/03/06 02:44:19;;;;;;;29.00;12.70;;;-1.00;99.90;;;;;;4992645;28;20200;-91
2021/03/06 02:46:45;;;;;;;25.20;12.87;;;-0.30;99.90;;;;;;4975883;28;20186;-92
2021/03/06 02:49:11;;;;;;;26.20;11.40;;;0.40;99.90;;;;;;4994097;28;20203;-92
2021/03/06 02:51:38;;;;;;;20.27;10.77;;;0.30;99.90;;;;;;4992099;28;20185;-91
2021/03/06 02:54:05;;;;;;;17.30;10.20;;;-0.70;99.90;;;;;;4992375;28;20222;-90
2021/03/06 02:56:31;;;;;;;25.70;12.07;;;-1.70;99.90;;;;;;4992277;28;20188;-90
2021/03/06 02:59:00;;;;;;;23.47;11.47;;;-0.50;99.90;;;;;;4976125;28;20626;-91
2021/03/06 03:01:57;;;;;;;25.60;12.40;;;-1.70;99.90;;;;;;4993818;28;20178;-91
2021/03/06 03:04:26;;;;;;;25.43;12.17;;;-1.70;99.90;;;;;;4992284;28;20615;-91
2021/03/06 03:07:00;;;;;;;25.10;11.93;;;-1.70;99.90;;;;;;4993340;28;20174;-91
2021/03/06 03:09:29;;;;;;;27.17;13.07;;;-0.90;99.90;;;;;;4993562;28;20241;-91
2021/03/06 03:12:13;;;;;;;24.40;12.37;;;-1.70;99.90;;;;;;4993204;28;20178;-89
2021/03/06 03:14:48;;;;;;;17.67;9.93;;;-1.70;99.90;;;;;;4993228;28;20208;-90
2021/03/06 03:17:34;;;;;;;25.20;13.23;;;-1.70;99.90;;;;;;4992448;28;20528;-90
2021/03/06 03:20:11;;;;;;;18.30;11.33;;;0.20;99.90;;;;;;4993565;28;20166;-90
2021/03/06 03:22:41;;;;;;;18.07;10.10;;;-1.60;99.90;;;;;;4993001;28;20176;-89
2021/03/06 03:25:09;;;;;;;11.10;7.37;;;0.00;99.90;;;;;;4997077;28;20163;-90
2021/03/06 03:27:37;;;;;;;20.30;12.53;;;-1.70;99.90;;;;;;4995609;28;20182;-90
2021/03/06 03:30:07;;;;;;;23.67;13.27;;;-1.70;99.90;;;;;;4995969;28;20172;-89
2021/03/06 03:32:34;;;;;;;21.47;11.80;;;-1.80;99.90;;;;;;4997257;28;20176;-88
2021/03/06 03:35:01;;;;;;;13.07;7.80;;;-0.50;99.90;;;;;;4995849;28;20201;-89
2021/03/06 03:37:28;;;;;;;21.07;11.60;;;-1.80;99.90;;;;;;4995849;28;20233;-90
2021/03/06 03:39:55;;;;;;;22.17;11.77;;;-0.90;99.90;;;;;;4995445;28;20196;-89
2021/03/06 03:42:21;;;;;;;24.57;13.57;;;0.30;99.90;;;;;;4979295;28;20292;-89
2021/03/06 03:44:48;;;;;;;28.60;14.37;;;-1.90;99.90;;;;;;4979134;28;20187;-89
2021/03/06 03:47:17;;;;;;;24.47;13.63;;;-1.90;99.90;;;;;;4996890;28;20182;-89
2021/03/06 03:49:43;;;;;;;20.20;10.63;;;-2.00;99.90;;;;;;4996340;28;20265;-89
2021/03/06 03:52:10;;;;;;;21.63;12.47;;;-1.90;99.90;;;;;;4996823;28;20301;-90
2021/03/06 03:54:35;;;;;;;30.03;13.40;;;-0.60;99.90;;;;;;4978987;28;20209;-89
2021/03/06 03:57:02;;;;;;;29.67;12.97;;;-0.80;99.90;;;;;;4978946;28;20193;-89
2021/03/06 03:59:28;;;;;;;24.77;12.27;;;-2.00;99.90;;;;;;4996694;28;20213;-92
2021/03/06 04:01:54;;;;;;;17.90;8.87;;;-0.50;99.90;;;;;;4994930;28;20191;-89
2021/03/06 04:04:25;;;;;;;20.90;10.27;;;-0.10;99.90;;;;;;4996544;28;20211;-90
2021/03/06 04:06:52;;;;;;;19.20;8.90;;;-1.10;99.90;;;;;;4996012;28;20670;-90
2021/03/06 04:09:18;;;;;;;17.73;10.23;;;0.10;99.90;;;;;;4995394;28;20191;-91
2021/03/06 04:11:43;;;;;;;16.10;8.57;;;-1.90;99.90;;;;;;4995613;28;20208;-91
2021/03/06 04:14:09;;;;;;;20.10;10.47;;;-1.90;99.90;;;;;;4995954;28;20586;-91
2021/03/06 04:16:35;;;;;;;21.40;11.90;;;-1.70;99.90;;;;;;4995333;28;20185;-90
2021/03/06 04:19:01;;;;;;;17.83;8.47;;;0.10;99.90;;;;;;4994868;28;20197;-90
2021/03/06 04:21:27;;;;;;;27.10;10.57;;;-1.80;99.90;;;;;;4995286;28;20270;-92
2021/03/06 04:23:52;;;;;;;20.47;9.70;;;-1.80;99.90;;;;;;4994499;28;20306;-91
2021/03/06 04:26:19;;;;;;;13.37;7.93;;;0.10;99.90;;;;;;4978890;28;20190;-91
2021/03/06 04:28:44;;;;;;;16.27;8.43;;;-1.00;99.90;;;;;;4994553;28;20639;-92
2021/03/06 04:31:10;;;;;;;17.67;9.53;;;-1.80;99.90;;;;;;4999461;28;20269;-92
2021/03/06 04:33:36;;;;;;;17.33;10.13;;;-0.80;99.90;;;;;;5001689;28;20512;-91
2021/03/06 04:36:01;;;;;;;20.07;10.17;;;-1.10;99.90;;;;;;5000647;28;20715;-93
2021/03/06 04:38:27;;;;;;;22.67;11.50;;;-1.80;99.90;;;;;;4999118;28;20190;-92
2021/03/06 04:40:53;;;;;;;15.53;8.77;;;-1.50;99.90;;;;;;4998732;28;20181;-91
2021/03/06 04:43:19;;;;;;;22.90;8.97;;;-1.00;99.90;;;;;;5018649;28;20291;-86
2021/03/06 04:45:44;;;;;;;16.43;9.57;;;-1.80;99.90;;;;;;5019176;28;20158;-87
2021/03/06 04:48:10;;;;;;;16.73;9.37;;;-0.30;99.90;;;;;;5019627;28;20208;-87
2021/03/06 04:50:35;;;;;;;19.03;10.60;;;-1.50;99.90;;;;;;5020154;28;20173;-86
2021/03/06 04:53:01;;;;;;;18.57;10.30;;;-1.80;99.90;;;;;;4987423;28;20188;-90
2021/03/06 04:55:27;;;;;;;15.73;8.93;;;-1.90;99.90;;;;;;4996396;28;20586;-90
2021/03/06 04:57:52;;;;;;;18.87;8.13;;;0.10;99.90;;;;;;5003586;28;20196;-86
2021/03/06 05:00:18;;;;;;;25.40;10.27;;;-1.90;99.90;;;;;;4977873;28;20193;-87
2021/03/06 05:02:45;;;;;;;13.70;8.33;;;-1.90;99.90;;;;;;5008240;28;20185;-85
2021/03/06 05:05:11;;;;;;;20.70;9.87;;;-0.90;99.90;;;;;;4994256;28;20205;-85
2021/03/06 05:07:37;;;;;;;14.47;7.33;;;-1.90;99.90;;;;;;5003654;28;20184;-90
2021/03/06 05:10:04;;;;;;;16.57;8.77;;;-1.40;99.90;;;;;;4996091;28;20237;-90
2021/03/06 05:12:30;;;;;;;17.50;9.17;;;-1.90;99.90;;;;;;4995480;28;20193;-90
2021/03/06 05:14:56;;;;;;;14.70;8.87;;;0.00;99.90;;;;;;4993527;28;20570;-89
2021/03/06 05:17:21;;;;;;;22.27;11.60;;;-1.70;99.90;;;;;;4994205;28;20262;-90
2021/03/06 05:19:47;;;;;;;12.87;7.70;;;-1.90;99.90;;;;;;4993913;28;20212;-90
2021/03/06 05:22:13;;;;;;;20.10;9.67;;;0.20;99.90;;;;;;4994808;28;20188;-90
2021/03/06 05:24:39;;;;;;;22.93;10.27;;;-1.30;99.90;;;;;;4993763;28;20193;-91
2021/03/06 05:27:05;;;;;;;124.43;47.20;;;-0.60;99.90;;;;;;4977072;28;20666;-89
2021/03/06 05:29:32;;;;;;;13.37;6.87;;;-1.90;99.90;;;;;;4977230;28;20674;-90
2021/03/06 05:31:59;;;;;;;112.33;44.13;;;-1.90;99.90;;;;;;4977266;28;20223;-90
2021/03/06 05:34:25;;;;;;;149.40;50.57;;;-1.90;99.90;;;;;;4995096;28;20206;-89
2021/03/06 05:36:51;;;;;;;234.23;57.67;;;-1.20;99.90;;;;;;4991518;28;20192;-87
2021/03/06 05:39:18;;;;;;;233.50;56.07;;;-0.70;99.90;;;;;;4971462;28;20239;-90
2021/03/06 05:41:44;;;;;;;213.10;54.23;;;-1.60;99.90;;;;;;4967019;28;20629;-90
2021/03/06 05:44:11;;;;;;;321.87;62.17;;;-0.90;99.90;;;;;;4978224;28;20191;-89
2021/03/06 05:46:37;;;;;;;322.07;65.37;;;-1.80;99.90;;;;;;4983818;28;20276;-89
2021/03/06 05:49:04;;;;;;;333.50;62.00;;;-0.20;99.90;;;;;;4987426;28;20269;-90
2021/03/06 05:51:34;;;;;;;151.33;51.00;;;-1.80;99.90;;;;;;4973723;28;20200;-89
2021/03/06 05:54:06;;;;;;;343.00;64.97;;;-1.80;99.90;;;;;;4980895;28;20216;-90
2021/03/06 05:56:33;;;;;;;324.00;57.43;;;-1.80;99.90;;;;;;4976298;28;20188;-88
2021/03/06 05:59:06;;;;;;;334.40;60.83;;;-0.30;99.90;;;;;;4981126;28;20243;-90
2021/03/06 06:01:31;;;;;;;337.17;62.80;;;-1.80;99.90;;;;;;4977220;28;20175;-90
2021/03/06 06:04:01;;;;;;;342.00;62.53;;;-1.80;99.90;;;;;;4972089;28;20182;-92
2021/03/06 06:06:38;;;;;;;340.43;62.87;;;-0.10;99.90;;;;;;4972432;28;20183;-92
2021/03/06 06:09:08;;;;;;;12.23;8.33;;;0.20;99.90;;;;;;4983895;28;20241;-91
2021/03/06 06:11:34;;;;;;;15.40;7.87;;;0.50;99.90;;;;;;4974475;28;20520;-92
2021/03/06 06:14:02;;;;;;;12.77;7.60;;;-1.80;99.90;;;;;;4991020;28;20228;-92
2021/03/06 06:16:35;;;;;;;12.03;6.23;;;-1.80;99.90;;;;;;4991184;28;20253;-92
2021/03/06 06:19:02;;;;;;;18.80;9.13;;;-1.80;99.90;;;;;;4991179;28;20186;-90
2021/03/06 06:21:48;;;;;;;11.27;6.97;;;-1.00;99.90;;;;;;4992056;28;20194;-91
2021/03/06 06:24:16;;;;;;;18.33;9.60;;;-1.60;99.90;;;;;;4973691;28;20550;-90
2021/03/06 06:26:59;;;;;;;15.93;9.37;;;-1.60;99.90;;;;;;4991411;28;20193;-90
2021/03/06 06:29:41;;;;;;;16.90;9.03;;;-1.60;99.90;;;;;;4990403;28;20574;-91
2021/03/06 06:32:14;;;;;;;9.47;6.40;;;-1.50;99.90;;;;;;4990004;28;20182;-91
2021/03/06 06:34:41;;;;;;;11.90;6.17;;;0.70;99.90;;;;;;4992084;28;20210;-95
2021/03/06 06:37:16;;;;;;;10.90;6.80;;;0.30;99.90;;;;;;4990890;28;20196;-91
2021/03/06 06:39:43;;;;;;;349.80;62.50;;;0.50;99.90;;;;;;4983984;28;20208;-94
2021/03/06 06:42:09;;;;;;;359.03;68.97;;;0.70;99.90;;;;;;4974462;28;20239;-95
2021/03/06 06:44:36;;;;;;;341.53;65.37;;;-1.60;99.90;;;;;;4989120;28;20598;-94
2021/03/06 06:47:16;;;;;;;325.67;66.83;;;-0.70;99.90;;;;;;4971486;28;20694;-92
2021/03/06 06:49:53;;;;;;;174.87;53.10;;;-0.60;99.90;;;;;;4988222;28;20198;-95
2021/03/06 06:52:21;;;;;;;15.53;7.90;;;-1.50;99.90;;;;;;4980666;28;20212;-93
2021/03/06 06:54:58;;;;;;;11.03;6.33;;;-1.40;99.90;;;;;;4975051;28;20209;-94
2021/03/06 06:57:24;;;;;;;12.90;7.60;;;-1.50;99.90;;;;;;4989998;28;20267;-91
2021/03/06 07:00:07;;;;;;;12.00;7.10;;;-1.40;99.90;;;;;;4991714;28;20737;-89
2021/03/06 07:02:33;;;;;;;12.43;8.20;;;-1.30;99.90;;;;;;4971329;28;20189;-91
2021/03/06 07:05:03;;;;;;;13.03;6.47;;;-1.30;99.90;;;;;;4980475;28;20223;-89
2021/03/06 07:07:42;;;;;;;15.40;7.87;;;-1.30;99.90;;;;;;4994928;28;20196;-87
2021/03/06 07:10:11;;;;;;;15.13;7.33;;;-1.20;99.90;;;;;;4982594;28;20189;-87
2021/03/06 07:12:41;;;;;;;12.20;7.37;;;-1.10;99.90;;;;;;4987343;28;20544;-90
2021/03/06 07:15:21;;;;;;;12.93;6.67;;;0.30;99.90;;;;;;4991573;28;20213;-87
2021/03/06 07:17:49;;;;;;;12.60;6.77;;;-1.20;99.90;;;;;;4985999;28;20197;-87
2021/03/06 07:20:24;;;;;;;9.93;6.37;;;0.60;99.90;;;;;;4993621;28;20244;-87
2021/03/06 07:22:52;;;;;;;14.80;7.53;;;0.70;99.90;;;;;;4993186;28;20205;-86
2021/03/06 07:25:22;;;;;;;16.43;8.73;;;0.80;99.90;;;;;;4992721;28;20226;-87
2021/03/06 07:27:48;;;;;;;15.77;7.83;;;;;;;;;;4994651;28;20205;-89
2021/03/06 07:30:15;;;;;;;13.33;7.90;;;-1.00;99.90;;;;;;4993009;28;20190;-90
2021/03/06 07:32:44;;;;;;;14.03;6.87;;;-1.00;99.90;;;;;;4994789;28;20174;-86
2021/03/06 07:35:11;;;;;;;12.17;7.60;;;1.50;99.90;;;;;;4993825;28;20232;-89
2021/03/06 07:37:38;;;;;;;49.30;24.80;;;-1.00;99.90;;;;;;4978042;28;20187;-86
2021/03/06 07:40:10;;;;;;;11.93;5.83;;;0.30;99.90;;;;;;4998765;28;20261;-88
2021/03/06 07:42:58;;;;;;;13.70;6.27;;;-0.90;99.90;;;;;;4996630;28;20230;-88
2021/03/06 07:45:26;;;;;;;13.50;8.30;;;0.20;99.90;;;;;;4995466;28;20178;-85
2021/03/06 07:48:11;;;;;;;15.93;8.47;;;-0.80;99.90;;;;;;4978533;28;20181;-86
2021/03/06 07:50:45;;;;;;;282.83;54.23;;;-0.70;99.90;;;;;;4978514;28;20265;-89
2021/03/06 07:53:12;;;;;;;21.67;9.17;;;-0.70;99.90;;;;;;4978338;28;20186;-85
2021/03/06 07:55:39;;;;;;;22.80;9.93;;;-0.70;99.90;;;;;;4989759;28;20218;-89
2021/03/06 07:58:09;;;;;;;14.70;7.23;;;-0.70;99.90;;;;;;4959137;28;20644;-89
2021/03/06 08:00:46;;;;;;;20.87;10.20;;;-1.80;99.90;;;;;;4977224;28;20178;-90
2021/03/06 08:03:25;;;;;;;33.53;10.67;;;-0.70;99.90;;;;;;4964615;28;20186;-89
2021/03/06 08:05:53;;;;;;;19.67;9.07;;;0.60;99.90;;;;;;4968208;28;20189;-90
2021/03/06 08:08:36;;;;;;;9.77;6.23;;;-0.20;99.90;;;;;;4970158;28;20175;-89
2021/03/06 08:11:19;;;;;;;15.43;8.90;;;1.20;99.90;;;;;;4961883;28;20665;-88
2021/03/06 08:13:47;;;;;;;19.93;9.30;;;1.00;99.90;;;;;;4975649;28;20170;-90
2021/03/06 08:16:25;;;;;;;17.07;9.33;;;1.10;99.90;;;;;;4975447;28;20200;-90
2021/03/06 08:19:09;;;;;;;16.00;7.67;;;1.60;99.90;;;;;;4959101;28;20186;-91
2021/03/06 08:21:47;;;;;;;300.83;52.23;;;-0.30;99.90;;;;;;4958993;28;20186;-90
2021/03/06 08:26:42;;;;;;;15.43;8.20;;;1.50;99.90;;;;;;4975772;28;20189;-88
2021/03/06 08:29:38;;;;;;;10.33;6.17;;;-0.40;99.90;;;;;;4974627;28;20188;-88
2021/03/06 08:32:13;;;;;;;8.40;5.13;;;-0.40;99.90;;;;;;4941066;28;20663;-90
2021/03/06 08:34:47;;;;;;;7.57;4.93;;;0.10;99.90;;;;;;4974284;28;20260;-90
2021/03/06 08:37:16;;;;;;;265.47;44.30;;;-0.40;99.90;;;;;;4974814;28;20258;-89
2021/03/06 08:39:41;;;;;;;339.80;58.47;;;-0.10;99.90;;;;;;4974971;28;20182;-91
2021/03/06 08:42:07;;;;;;;355.43;60.23;;;1.40;99.90;;;;;;4964713;28;20293;-90
2021/03/06 08:44:33;;;;;;;360.03;62.80;;;-0.10;99.90;;;;;;4975963;28;20228;-90
2021/03/06 08:46:59;;;;;;;362.37;63.50;;;0.00;99.90;;;;;;4958764;28;20265;-89
2021/03/06 08:49:24;;;;;;;367.43;64.57;;;1.90;99.90;;;;;;4975315;28;20192;-89
2021/03/06 08:51:52;;;;;;;362.00;61.17;;;0.20;99.90;;;;;;4943985;28;20538;-88
2021/03/06 08:54:20;;;;;;;365.23;60.80;;;1.20;99.90;;;;;;4974353;28;20202;-89
2021/03/06 08:56:45;;;;;;;9.73;5.80;;;0.30;99.90;;;;;;4975894;28;20630;-91
2021/03/06 08:59:11;;;;;;;8.73;5.27;;;1.00;99.90;;;;;;4975760;28;20268;-91
2021/03/06 09:01:37;;;;;;;7.47;5.00;;;0.30;99.90;;;;;;4958541;28;20215;-91
2021/03/06 09:04:02;;;;;;;10.80;6.83;;;0.30;99.90;;;;;;4975868;28;20217;-87
2021/03/06 09:06:41;;;;;;;12.13;5.27;;;0.30;99.90;;;;;;4977385;28;20186;-89
2021/03/06 09:09:10;;;;;;;10.40;5.93;;;0.50;99.90;;;;;;4975939;28;20178;-90
2021/03/06 09:11:53;;;;;;;13.13;6.20;;;0.90;99.90;;;;;;4975204;28;20635;-90
2021/03/06 09:14:18;;;;;;;10.10;4.57;;;1.20;99.90;;;;;;4974085;28;20241;-85
2021/03/06 09:16:48;;;;;;;8.60;4.60;;;1.70;99.90;;;;;;4975366;28;20612;-89
2021/03/06 09:19:30;;;;;;;8.73;4.87;;;2.40;99.90;;;;;;4975684;28;20220;-88
2021/03/06 09:21:59;;;;;;;12.23;6.10;;;0.70;99.90;;;;;;4972658;28;20590;-89
2021/03/06 09:24:40;;;;;;;15.47;5.67;;;2.20;99.90;;;;;;4979343;28;20256;-90
2021/03/06 09:27:06;;;;;;;11.20;4.43;;;0.70;99.90;;;;;;4973373;28;20269;-88
2021/03/06 09:29:32;;;;;;;9.63;5.07;;;0.90;99.90;;;;;;4973145;28;20290;-86
2021/03/06 09:31:57;;;;;;;17.43;4.23;;;1.70;99.90;;;;;;4973567;28;20187;-89
2021/03/06 09:34:28;;;;;;;6.73;3.27;;;2.90;99.90;;;;;;4974626;28;20189;-89
2021/03/06 09:36:54;;;;;;;9.13;3.57;;;3.00;99.90;;;;;;4987036;28;20643;-89
2021/03/06 09:39:24;;;;;;;9.73;4.03;;;0.60;99.90;;;;;;4989779;28;20673;-91
2021/03/06 09:41:50;;;;;;;9.73;3.80;;;2.30;99.90;;;;;;4986869;28;20702;-90
2021/03/06 09:44:17;;;;;;;6.33;3.67;;;0.80;96.60;;;;;;4991310;28;20185;-92
2021/03/06 09:46:44;;;;;;;7.80;4.10;;;2.70;97.50;;;;;;4983920;28;20979;-88
2021/03/06 09:49:16;;;;;;;9.63;3.63;;;1.30;94.80;;;;;;4974941;28;20194;-90
2021/03/06 09:51:47;;;;;;;6.00;3.07;;;1.40;92.00;;;;;;4974368;28;20197;-94
2021/03/06 09:54:17;;;;;;;6.23;3.53;;;1.50;91.80;;;;;;4977745;28;20202;-91
2021/03/06 09:56:45;;;;;;;5.93;3.50;;;1.70;91.60;;;;;;4986830;28;20666;-93
2021/03/06 09:59:11;;;;;;;8.07;2.97;;;2.00;89.60;;;;;;4993664;28;20189;-91
2021/03/06 10:01:37;;;;;;;6.20;3.23;;;3.90;85.80;;;;;;4992564;28;20174;-92
2021/03/06 10:04:09;;;;;;;8.83;2.50;;;2.30;81.90;;;;;;4976723;28;20185;-94
2021/03/06 10:06:36;;;;;;;4.13;2.33;;;1.90;73.00;;;;;;4994286;28;20192;-91
2021/03/06 10:09:05;;;;;;;5.60;2.63;;;2.10;71.60;;;;;;4992982;28;20209;-94
2021/03/06 10:11:37;;;;;;;6.40;3.30;;;1.90;72.30;;;;;;4994246;28;20538;-90
2021/03/06 10:14:05;;;;;;;4.30;2.37;;;2.10;73.10;;;;;;4994451;28;20177;-93
2021/03/06 10:16:54;;;;;;;4.77;2.80;;;2.10;71.90;;;;;;4992937;28;20205;-95
2021/03/06 10:19:24;;;;;;;8.93;3.13;;;2.10;70.20;;;;;;4994038;28;20619;-94
2021/03/06 10:22:05;;;;;;;4.40;2.70;;;1.90;72.20;;;;;;4992481;28;20643;-91
2021/03/06 10:24:49;;;;;;;6.17;2.53;;;2.00;69.70;;;;;;4993763;28;20173;-91
2021/03/06 10:27:14;;;;;;;8.13;2.63;;;3.90;70.40;;;;;;4993662;28;20604;-92
2021/03/06 10:29:40;;;;;;;2.27;1.10;;;2.00;66.00;;;;;;4993223;28;20261;-90
2021/03/06 10:32:06;;;;;;;5.20;2.53;;;2.00;62.10;;;;;;4992443;28;20250;-90
2021/03/06 10:34:34;;;;;;;3.17;1.70;;;2.00;62.50;;;;;;4975870;28;20206;-91
2021/03/06 10:37:14;;;;;;;3.67;1.80;;;2.10;63.20;;;;;;4993779;28;20261;-90
2021/03/06 10:40:01;;;;;;;3.70;2.33;;;2.30;60.00;;;;;;4993545;28;20168;-89
2021/03/06 10:42:45;;;;;;;1.73;1.47;;;2.80;60.40;;;;;;4984521;28;20254;-86
2021/03/06 10:45:27;;;;;;;3.43;2.20;;;2.60;60.70;;;;;;4964550;28;20194;-90
2021/03/06 10:47:56;;;;;;;3.90;2.30;;;4.00;63.40;;;;;;4967396;28;20736;-88
2021/03/06 10:50:33;;;;;;;3.33;1.80;;;2.60;62.20;;;;;;4981887;28;20182;-90
2021/03/06 10:53:10;;;;;;;5.00;2.63;;;2.70;61.70;;;;;;4973993;28;20273;-89
2021/03/06 10:55:37;;;;;;;1.50;1.20;;;2.60;61.40;;;;;;4968911;28;20209;-88
2021/03/06 10:58:03;;;;;;;2.23;1.90;;;2.40;59.40;;;;;;4985675;28;20660;-93
2021/03/06 11:00:29;;;;;;;4.40;2.20;;;2.20;59.70;;;;;;4961764;28;20286;-90
2021/03/06 11:03:00;;;;;;;8.03;1.87;;;2.40;59.50;;;;;;4940689;28;20297;-89
2021/03/06 11:05:27;;;;;;;4.27;2.23;;;2.60;60.10;;;;;;4976102;28;20624;-89
2021/03/06 11:07:53;;;;;;;2.50;2.13;;;2.80;59.60;;;;;;4970196;28;20186;-86
2021/03/06 11:10:23;;;;;;;4.20;2.77;;;3.00;60.50;;;;;;4971322;28;20184;-86
2021/03/06 11:12:55;;;;;;;2.97;2.13;;;2.70;61.60;;;;;;4953665;28;20198;-84
2021/03/06 11:15:23;;;;;;;4.20;2.43;;;3.30;62.40;;;;;;4973372;28;20207;-85
2021/03/06 11:17:53;;;;;;;4.07;2.40;;;2.70;61.30;;;;;;4964353;28;20264;-90
2021/03/06 11:20:21;;;;;;;5.33;2.80;;;2.90;62.40;;;;;;4982432;28;20259;-88
2021/03/06 11:22:47;;;;;;;4.07;2.57;;;3.20;62.30;;;;;;4974904;28;20175;-85
2021/03/06 11:25:14;;;;;;;4.50;2.27;;;3.10;61.40;;;;;;4979953;28;20612;-85
2021/03/06 11:28:03;;;;;;;4.57;2.70;;;2.90;61.40;;;;;;4994290;28;20174;-84
2021/03/06 11:30:43;;;;;;;7.93;2.40;;;2.60;62.00;;;;;;4985921;28;20184;-89
2021/03/06 11:33:10;;;;;;;7.60;3.30;;;2.50;63.80;;;;;;4993237;28;20185;-87
2021/03/06 11:35:37;;;;;;;4.50;1.97;;;2.30;64.50;;;;;;4959304;28;20263;-87
2021/03/06 11:38:04;;;;;;;3.40;2.50;;;2.40;65.60;;;;;;4992579;28;20265;-88
2021/03/06 11:40:32;;;;;;;3.73;2.20;;;2.30;66.10;;;;;;4992007;28;20214;-88
2021/03/06 11:42:58;;;;;;;3.57;2.37;;;2.30;66.00;;;;;;4982522;28;20258;-88
2021/03/06 11:45:24;;;;;;;4.20;2.63;;;3.70;65.30;;;;;;4983433;28;20225;-88
2021/03/06 11:47:52;;;;;;;4.57;2.53;;;3.70;65.00;;;;;;4974285;28;20179;-87
2021/03/06 11:50:24;;;;;;;12.60;4.57;;;2.40;63.10;;;;;;4987471;28;20283;-87
2021/03/06 11:52:50;;;;;;;6.33;3.60;;;2.40;64.10;;;;;;4984819;28;20171;-87
2021/03/06 11:55:16;;;;;;;7.57;2.57;;;2.40;64.00;;;;;;4984521;28;20209;-88
2021/03/06 11:57:42;;;;;;;4.30;2.53;;;2.30;62.60;;;;;;4982803;28;20282;-95
2021/03/06 12:00:14;;;;;;;5.07;3.07;;;2.30;64.10;;;;;;4981155;28;20272;-88
2021/03/06 12:02:40;;;;;;;6.80;4.03;;;2.40;64.30;;;;;;4977278;28;20186;-88
2021/03/06 12:05:07;;;;;;;8.83;3.70;;;4.10;66.30;;;;;;4982800;28;20202;-87
2021/03/06 12:07:33;;;;;;;10.00;4.93;;;2.60;65.50;;;;;;4977986;28;20190;-88
2021/03/06 12:09:58;;;;;;;15.30;4.90;;;2.80;67.30;;;;;;4981347;28;20315;-89
2021/03/06 12:12:24;;;;;;;10.20;5.30;;;2.80;66.50;;;;;;4982277;28;20272;-87
2021/03/06 12:14:50;;;;;;;5.27;3.27;;;2.90;67.30;;;;;;4984671;28;20789;-89
2021/03/06 12:17:15;;;;;;;10.33;4.20;;;3.20;67.30;;;;;;4983005;28;20654;-87
2021/03/06 12:19:41;;;;;;;6.00;2.90;;;2.90;66.00;;;;;;4982053;28;20204;-89
2021/03/06 12:22:07;;;;;;;3.10;2.63;;;2.70;64.10;;;;;;4982616;28;20332;-87
2021/03/06 12:24:32;;;;;;;5.13;3.03;;;3.80;66.60;;;;;;4951439;28;20180;-88
2021/03/06 12:26:58;;;;;;;4.27;3.00;;;2.80;65.30;;;;;;4984294;28;20183;-87
2021/03/06 12:29:24;;;;;;;5.00;2.50;;;3.60;64.80;;;;;;4984201;28;20708;-87
2021/03/06 12:31:49;;;;;;;7.63;2.90;;;2.60;63.80;;;;;;4981905;28;20197;-86
2021/03/06 12:34:15;;;;;;;4.27;2.67;;;2.50;65.50;;;;;;4981458;28;20190;-87
2021/03/06 12:36:42;;;;;;;4.40;2.83;;;2.50;65.30;;;;;;4965385;28;20194;-85
2021/03/06 12:39:07;;;;;;;5.63;2.70;;;2.50;65.70;;;;;;4963596;28;20583;-87
2021/03/06 12:41:34;;;;;;;5.83;2.80;;;2.70;66.80;;;;;;4983709;28;20225;-86
2021/03/06 12:44:00;;;;;;;3.90;2.37;;;2.80;65.90;;;;;;4984784;28;20184;-87
2021/03/06 12:46:26;;;;;;;5.37;2.60;;;2.90;66.30;;;;;;4960188;28;20266;-86
2021/03/06 12:48:52;;;;;;;6.10;2.43;;;2.80;66.00;;;;;;4944871;28;20575;-86
2021/03/06 12:51:19;;;;;;;3.50;2.70;;;2.90;65.80;;;;;;4954241;28;20190;-86